Strona główna
METAR-TAF:

METAR-TAF

Lotnisko :

Port lotniczy Oslo-Gardermoen

Oslo, Norwegia

Szerokość geograficzna: 60-12N, Długość geograficzna: 011-05E, wysokość: 208 m

Aktualna obserwacja pogody

Raport powstał 33 minut temu, godzina 23:50 UTC
Wiatr 4 kt od północ
Temperatura 9°C
Wilgotność 66%
Ciśnienie 1018 hPa
Widzialność 10 km lub więcej
Brak chmur poniżej 1500 m i brak chmur cumulonimbus

METAR: ENGM 172350Z 35004KT CAVOK 09/03 Q1018

czas: 02:23 (00:23 UTC)

Prognoza

Raport powstał 1 godzina i 23 minut temu, godzina 23:00 UTC
Prognoza ważna od 18 godzina 00 UTC do 18 godzina 24 UTC
Wiatr 3 kt od północ
Widzialność 10 km lub więcej
Brak chmur poniżej 1500 m i brak chmur cumulonimbus
Stopniowe zmiany
od 18 godzina 08 UTC do 18 godzina 10 UTC
Wiatr 10 kt od południe
Stopniowe zmiany
od 18 godzina 19 UTC do 18 godzina 21 UTC
Wiatr 3 kt z kierunków zmiennych

TAF: ENGM 172300Z 1800/1824 36003KT CAVOK BECMG 1808/1810 19010KT BECMG 1819/1821 VRB03KT

Obserwacja i prognoza pogody dla ponad 4000 lotnisk (raport METAR i TAF).

Dostępne stacje oznaczono żółtymi i czerwonymi punktami na mapie.

Najedź kursorem aby zobaczyć nazwę stacji.

Kliknij aby zobaczyć obserwacje i prognozy pogody.

Aby zmienić mapę: kliknij na zielony przycisk z czarnym krzyżykiem, aby powiększyć; na zielony przycisk z myślnikiem, aby pomniejszyć; na zielone strzałki, aby przejść do map sąsiednich.


METAR-TAF: